createdAt,value
2023-07-14T00:02:11.427Z,99291.59
2023-07-14T00:04:42.352Z,99284.13
2023-07-14T00:07:15.237Z,99273.81
2023-07-14T00:09:45.199Z,99270.44
2023-07-14T00:12:15.550Z,99273.81
2023-07-14T00:14:43.982Z,99273.66
2023-07-14T00:17:13.723Z,99271.97
2023-07-14T00:19:42.298Z,99270.00
2023-07-14T00:22:16.588Z,99260.97
2023-07-14T00:24:45.381Z,99254.03
2023-07-14T00:27:20.446Z,99257.91
2023-07-14T00:29:50.778Z,99255.06
2023-07-14T00:32:22.441Z,99257.50
2023-07-14T00:34:51.149Z,99247.63
2023-07-14T00:37:19.926Z,99247.34
2023-07-14T00:39:48.557Z,99246.88
2023-07-14T00:42:18.865Z,99257.22
2023-07-14T00:44:48.142Z,99255.75
2023-07-14T00:47:33.238Z,99249.44
2023-07-14T00:50:05.592Z,99262.63
2023-07-14T00:52:36.875Z,99269.13
2023-07-14T00:55:30.461Z,99266.03
2023-07-14T00:58:00.287Z,99273.34
2023-07-14T01:00:33.366Z,99263.84
2023-07-14T01:03:03.528Z,99258.81
2023-07-14T01:05:32.928Z,99259.34
2023-07-14T01:08:01.478Z,99261.50
2023-07-14T01:10:31.306Z,99262.28
2023-07-14T01:13:07.005Z,99264.56
2023-07-14T01:15:38.951Z,99251.63
2023-07-14T01:18:08.164Z,99244.63
2023-07-14T01:20:39.813Z,99246.84
2023-07-14T01:23:26.420Z,99255.78
2023-07-14T01:26:10.608Z,99257.38
2023-07-14T01:28:40.958Z,99250.19
2023-07-14T01:31:14.768Z,99260.91
2023-07-14T01:33:43.167Z,99263.63
2023-07-14T01:36:12.205Z,99266.75
2023-07-14T01:38:44.110Z,99255.69
2023-07-14T01:41:13.553Z,99263.44
2023-07-14T01:43:44.620Z,99267.38
2023-07-14T01:46:25.083Z,99262.88
2023-07-14T01:49:05.310Z,99261.50
2023-07-14T01:51:39.924Z,99259.53
2023-07-14T01:54:13.599Z,99264.00
2023-07-14T01:56:44.819Z,99263.78
2023-07-14T01:59:21.598Z,99256.22
2023-07-14T02:01:53.622Z,99262.25
2023-07-14T02:04:26.892Z,99262.16
2023-07-14T02:06:57.686Z,99258.28
2023-07-14T02:09:29.782Z,99255.84
2023-07-14T02:12:02.320Z,99250.41
2023-07-14T02:14:39.337Z,99256.56
2023-07-14T02:17:18.046Z,99266.44
2023-07-14T02:19:48.008Z,99266.38
2023-07-14T02:22:19.395Z,99273.31
2023-07-14T02:24:50.064Z,99276.72
2023-07-14T02:27:18.821Z,99272.06
2023-07-14T02:29:48.712Z,99276.66
2023-07-14T02:32:25.691Z,99268.84
2023-07-14T02:35:01.125Z,99272.06
2023-07-14T02:37:44.527Z,99278.28
2023-07-14T02:40:15.881Z,99268.56
2023-07-14T02:42:44.251Z,99272.41
2023-07-14T02:45:18.657Z,99271.06
2023-07-14T02:47:50.821Z,99265.78
2023-07-14T02:50:20.824Z,99266.63
2023-07-14T02:52:50.118Z,99259.69
2023-07-14T02:55:19.047Z,99253.56
2023-07-14T02:57:47.437Z,99262.44
2023-07-14T03:00:20.764Z,99258.69
2023-07-14T03:02:49.700Z,99255.97
2023-07-14T03:05:22.528Z,99266.38
2023-07-14T03:07:51.370Z,99270.31
2023-07-14T03:10:21.623Z,99260.88
2023-07-14T03:12:50.111Z,99255.81
2023-07-14T03:15:20.149Z,99252.47
2023-07-14T03:17:51.762Z,99243.75
2023-07-14T03:20:21.119Z,99246.34
2023-07-14T03:22:49.238Z,99242.91
2023-07-14T03:25:17.843Z,99246.09
2023-07-14T03:27:47.347Z,99241.47
2023-07-14T03:30:16.002Z,99234.47
2023-07-14T03:32:46.012Z,99229.53
2023-07-14T03:35:20.342Z,99228.13
2023-07-14T03:37:50.287Z,99229.34
2023-07-14T03:40:19.213Z,99242.94
2023-07-14T03:42:48.002Z,99243.88
2023-07-14T03:45:16.826Z,99243.47
2023-07-14T03:47:46.739Z,99245.97
2023-07-14T03:50:15.240Z,99247.66
2023-07-14T03:52:44.780Z,99251.88
2023-07-14T03:55:16.439Z,99245.91
2023-07-14T03:58:00.611Z,99240.97
2023-07-14T04:00:32.472Z,99230.69
2023-07-14T04:03:02.757Z,99226.09
2023-07-14T04:05:33.297Z,99227.13
2023-07-14T04:08:05.820Z,99227.00
2023-07-14T04:10:34.021Z,99229.28
2023-07-14T04:13:02.478Z,99232.84
2023-07-14T04:15:31.031Z,99224.59
2023-07-14T04:17:59.357Z,99237.97
2023-07-14T04:20:29.849Z,99234.47
2023-07-14T04:22:59.638Z,99240.66
2023-07-14T04:25:28.067Z,99239.41
2023-07-14T04:27:56.258Z,99238.44
2023-07-14T04:30:25.905Z,99236.06
2023-07-14T04:32:58.509Z,99237.50
2023-07-14T04:35:31.258Z,99241.19
2023-07-14T04:38:00.214Z,99239.78
2023-07-14T04:40:36.451Z,99233.47
2023-07-14T04:43:05.493Z,99234.44
2023-07-14T04:45:34.039Z,99230.00
2023-07-14T04:48:03.544Z,99233.59
2023-07-14T04:50:33.541Z,99232.13
2023-07-14T04:53:02.324Z,99238.16
2023-07-14T04:55:31.623Z,99234.78
2023-07-14T04:58:00.132Z,99217.16
2023-07-14T05:00:29.038Z,99220.78
2023-07-14T05:02:57.613Z,99213.50
2023-07-14T05:05:27.897Z,99217.72
2023-07-14T05:08:02.069Z,99207.00
2023-07-14T05:10:33.914Z,99213.63
2023-07-14T05:13:03.006Z,99212.56
2023-07-14T05:15:31.611Z,99213.47
2023-07-14T05:18:00.423Z,99216.03
2023-07-14T05:20:30.461Z,99215.72
2023-07-14T05:23:00.655Z,99214.19
2023-07-14T05:25:29.554Z,99213.00
2023-07-14T05:27:57.960Z,99212.53
2023-07-14T05:30:26.134Z,99218.72
2023-07-14T05:32:55.042Z,99217.22
2023-07-14T05:35:24.394Z,99217.06
2023-07-14T05:37:52.982Z,99217.09
2023-07-14T05:40:23.297Z,99214.69
2023-07-14T05:42:51.789Z,99216.84
2023-07-14T05:45:20.922Z,99209.81
2023-07-14T05:47:50.225Z,99207.28
2023-07-14T05:50:19.458Z,99210.78
2023-07-14T05:52:51.401Z,99212.50
2023-07-14T05:55:19.841Z,99211.22
2023-07-14T05:57:51.840Z,99208.41
2023-07-14T06:00:20.725Z,99209.22
2023-07-14T06:02:51.784Z,99210.19
2023-07-14T06:05:21.000Z,99214.41
2023-07-14T06:07:55.187Z,99208.31
2023-07-14T06:10:23.628Z,99201.72
2023-07-14T06:12:53.299Z,99204.66
2023-07-14T06:15:22.006Z,99197.53
2023-07-14T06:17:51.363Z,99197.88
2023-07-14T06:20:21.534Z,99189.34
2023-07-14T06:22:51.602Z,99184.03
2023-07-14T06:25:20.624Z,99192.06
2023-07-14T06:27:48.820Z,99181.19
2023-07-14T06:30:20.110Z,99184.50
2023-07-14T06:32:49.264Z,99181.66
2023-07-14T06:35:19.097Z,99170.38
2023-07-14T06:37:49.524Z,99171.56
2023-07-14T06:40:18.350Z,99167.66
2023-07-14T06:42:46.841Z,99168.00
2023-07-14T06:45:16.800Z,99167.72
2023-07-14T06:47:46.498Z,99168.47
2023-07-14T06:50:14.911Z,99162.81
2023-07-14T06:52:43.968Z,99157.81
2023-07-14T06:55:12.437Z,99157.38
2023-07-14T06:57:41.188Z,99146.56
2023-07-14T07:00:12.492Z,99152.53
2023-07-14T07:02:42.862Z,99145.25
2023-07-14T07:05:13.105Z,99152.56
2023-07-14T07:07:41.697Z,99144.50
2023-07-14T07:10:12.214Z,99145.19
2023-07-14T07:12:40.529Z,99144.56
2023-07-14T07:15:09.461Z,99135.13
2023-07-14T07:17:39.107Z,99147.09
2023-07-14T07:20:10.377Z,99148.44
2023-07-14T07:22:43.837Z,99148.94
2023-07-14T07:25:13.765Z,99158.69
2023-07-14T07:27:42.533Z,99152.56
2023-07-14T07:30:11.555Z,99155.59
2023-07-14T07:32:41.610Z,99150.13
2023-07-14T07:35:11.175Z,99147.41
2023-07-14T07:37:41.378Z,99151.22
2023-07-14T07:40:10.822Z,99143.38
2023-07-14T07:42:39.396Z,99144.22
2023-07-14T07:45:09.190Z,99136.69
2023-07-14T07:47:37.730Z,99131.44
2023-07-14T07:50:08.624Z,99133.34
2023-07-14T07:52:37.114Z,99127.78
2023-07-14T07:55:07.389Z,99123.56
2023-07-14T07:57:35.638Z,99126.41
2023-07-14T08:00:07.758Z,99124.75
2023-07-14T08:02:37.345Z,99118.63
2023-07-14T08:05:06.340Z,99119.94
2023-07-14T08:07:34.620Z,99117.47
2023-07-14T08:10:04.463Z,99115.19
2023-07-14T08:12:35.983Z,99109.69
2023-07-14T08:15:04.263Z,99112.50
2023-07-14T08:17:34.098Z,99100.19
2023-07-14T08:20:02.585Z,99106.13
2023-07-14T08:22:31.609Z,99101.75
2023-07-14T08:25:00.079Z,99099.53
2023-07-14T08:27:29.319Z,99101.59
2023-07-14T08:30:00.844Z,99096.22
2023-07-14T08:32:34.358Z,99097.13
2023-07-14T08:35:04.367Z,99095.63
2023-07-14T08:37:35.477Z,99096.66
2023-07-14T08:40:05.289Z,99098.19
2023-07-14T08:42:45.665Z,99101.06
2023-07-14T08:45:29.471Z,99096.41
2023-07-14T08:48:07.625Z,99095.69
2023-07-14T08:50:37.798Z,99094.28
2023-07-14T08:53:18.293Z,99095.66
2023-07-14T08:55:46.562Z,99090.84
2023-07-14T08:58:20.054Z,99079.56
2023-07-14T09:01:04.179Z,99083.13
2023-07-14T09:03:40.888Z,99089.53
2023-07-14T09:06:15.398Z,99087.59
2023-07-14T09:08:44.056Z,99079.19
2023-07-14T09:11:32.383Z,99078.59
2023-07-14T09:14:11.983Z,99073.38
2023-07-14T09:16:49.821Z,99075.41
2023-07-14T09:19:30.759Z,99066.66
2023-07-14T09:22:04.619Z,99068.47
2023-07-14T09:24:42.807Z,99070.03
2023-07-14T09:27:20.349Z,99058.47
2023-07-14T09:29:49.179Z,99067.75
2023-07-14T09:32:33.510Z,99068.47
2023-07-14T09:35:10.131Z,99059.06
2023-07-14T09:37:44.973Z,99052.75
2023-07-14T09:40:20.800Z,99049.09
2023-07-14T09:42:52.804Z,99050.13
2023-07-14T09:45:23.593Z,99054.00
2023-07-14T09:48:01.011Z,99059.13
2023-07-14T09:50:31.969Z,99055.38
2023-07-14T09:53:05.039Z,99051.19
2023-07-14T09:55:46.840Z,99051.53
2023-07-14T09:58:17.844Z,99052.59
2023-07-14T10:00:53.220Z,99050.53
2023-07-14T10:03:43.332Z,99046.47
2023-07-14T10:06:26.851Z,99042.88
2023-07-14T10:08:58.340Z,99047.31
2023-07-14T10:11:29.131Z,99035.88
2023-07-14T10:14:01.240Z,99042.72
2023-07-14T10:16:33.877Z,99040.09
2023-07-14T10:19:13.478Z,99026.38
2023-07-14T10:21:52.862Z,99027.69
2023-07-14T10:24:25.763Z,99024.28
2023-07-14T10:26:58.701Z,99010.91
2023-07-14T10:29:29.385Z,99020.78
2023-07-14T10:32:09.158Z,99019.78
2023-07-14T10:34:54.269Z,99009.69
2023-07-14T10:37:27.646Z,99007.69
2023-07-14T10:40:05.960Z,99008.91
2023-07-14T10:42:38.966Z,99001.59
2023-07-14T10:45:13.662Z,98997.19
2023-07-14T10:47:48.495Z,98986.38
2023-07-14T10:50:24.308Z,98994.91
2023-07-14T10:53:13.476Z,98990.69
2023-07-14T10:55:44.785Z,98986.47
2023-07-14T10:58:18.979Z,98988.34
2023-07-14T11:00:52.213Z,98980.97
2023-07-14T11:03:30.947Z,98985.41
2023-07-14T11:06:05.700Z,98971.47
2023-07-14T11:08:35.059Z,98979.00
2023-07-14T11:11:09.836Z,98982.81
2023-07-14T11:13:49.654Z,98976.25
2023-07-14T11:16:35.157Z,98981.06
2023-07-14T11:19:08.204Z,98973.13
2023-07-14T11:21:47.019Z,98984.16
2023-07-14T11:24:21.467Z,98979.44
2023-07-14T11:27:12.083Z,98972.59
2023-07-14T11:29:48.622Z,98969.59
2023-07-14T11:32:22.027Z,98965.88
2023-07-14T11:34:57.986Z,98966.53
2023-07-14T11:37:46.985Z,98974.03
2023-07-14T11:40:21.866Z,98969.34
2023-07-14T11:42:57.295Z,98968.56
2023-07-14T11:45:30.017Z,98969.72
2023-07-14T11:48:00.330Z,98968.00
2023-07-14T11:50:40.531Z,98961.81
2023-07-14T11:53:22.029Z,98960.16
2023-07-14T11:55:53.436Z,98959.22
2023-07-14T11:58:28.994Z,98959.69
2023-07-14T12:01:02.095Z,98962.91
2023-07-14T12:03:36.207Z,98970.31
